createdAt,value
2019-05-07T00:00:57.173Z,10.80
2019-05-07T00:03:26.413Z,10.70
2019-05-07T00:05:55.635Z,10.70
2019-05-07T00:08:24.888Z,10.70
2019-05-07T00:10:54.178Z,10.70
2019-05-07T00:13:23.433Z,10.60
2019-05-07T00:15:52.882Z,10.60
2019-05-07T00:18:22.963Z,10.60
2019-05-07T00:20:53.016Z,10.50
2019-05-07T00:23:23.233Z,10.50
2019-05-07T00:25:53.025Z,10.50
2019-05-07T00:28:23.159Z,10.50
2019-05-07T00:30:52.486Z,10.50
2019-05-07T00:33:22.783Z,10.40
2019-05-07T00:35:54.135Z,10.40
2019-05-07T00:38:25.007Z,10.40
2019-05-07T00:41:12.353Z,10.40
2019-05-07T00:43:43.591Z,10.30
2019-05-07T00:46:14.582Z,10.30
2019-05-07T00:48:44.142Z,10.30
2019-05-07T00:51:24.235Z,10.20
2019-05-07T00:53:53.613Z,10.20
2019-05-07T00:56:22.869Z,10.20
2019-05-07T00:58:52.777Z,10.20
2019-05-07T01:01:22.820Z,10.10
2019-05-07T01:03:53.331Z,10.10
2019-05-07T01:06:26.398Z,10.10
2019-05-07T01:08:53.882Z,10.10
2019-05-07T01:11:23.207Z,10.00
2019-05-07T01:13:52.458Z,10.00
2019-05-07T01:16:22.340Z,10.00
2019-05-07T01:18:53.746Z,10.00
2019-05-07T01:21:22.855Z,9.90
2019-05-07T01:23:52.365Z,9.90
2019-05-07T01:26:22.138Z,9.90
2019-05-07T01:29:02.917Z,9.80
2019-05-07T01:31:34.724Z,9.80
2019-05-07T01:34:08.709Z,9.80
2019-05-07T01:36:37.941Z,9.70
2019-05-07T01:39:07.242Z,9.70
2019-05-07T01:41:36.530Z,9.70
2019-05-07T01:44:05.845Z,9.70
2019-05-07T01:46:35.159Z,9.70
2019-05-07T01:49:04.404Z,9.60
2019-05-07T01:51:33.733Z,9.60
2019-05-07T01:54:03.115Z,9.60
2019-05-07T01:56:33.133Z,9.60
2019-05-07T01:59:02.709Z,9.50
2019-05-07T02:01:33.152Z,9.50
2019-05-07T02:04:04.781Z,9.50
2019-05-07T02:06:42.921Z,9.50
2019-05-07T02:09:25.768Z,9.40
2019-05-07T02:12:02.864Z,9.40
2019-05-07T02:14:33.049Z,9.40
2019-05-07T02:17:03.110Z,9.40
2019-05-07T02:19:33.042Z,9.30
2019-05-07T02:22:02.906Z,9.30
2019-05-07T02:24:33.869Z,9.30
2019-05-07T02:27:03.349Z,9.20
2019-05-07T02:29:32.626Z,9.20
2019-05-07T02:32:04.612Z,9.20
2019-05-07T02:34:34.212Z,9.20
2019-05-07T02:37:05.688Z,9.20
2019-05-07T02:39:39.310Z,9.10
2019-05-07T02:42:13.098Z,9.10
2019-05-07T02:44:59.446Z,9.10
2019-05-07T02:47:33.097Z,9.10
2019-05-07T02:50:03.426Z,9.00
2019-05-07T02:52:53.694Z,9.00
2019-05-07T02:55:26.277Z,9.00
2019-05-07T02:57:55.521Z,9.00
2019-05-07T03:00:24.858Z,8.90
2019-05-07T03:02:54.176Z,8.90
2019-05-07T03:05:23.455Z,8.90
2019-05-07T03:07:53.681Z,8.90
2019-05-07T03:10:23.961Z,8.80
2019-05-07T03:12:53.828Z,8.80
2019-05-07T03:15:24.331Z,8.80
2019-05-07T03:17:54.077Z,8.80
2019-05-07T03:20:25.175Z,8.70
2019-05-07T03:22:55.673Z,8.70
2019-05-07T03:25:33.825Z,8.70
2019-05-07T03:28:04.377Z,8.70
2019-05-07T03:30:36.429Z,8.70
2019-05-07T03:33:16.190Z,8.60
2019-05-07T03:35:56.242Z,8.60
2019-05-07T03:38:23.069Z,8.60
2019-05-07T03:40:53.251Z,8.60
2019-05-07T03:43:24.474Z,8.60
2019-05-07T03:46:03.534Z,8.50
2019-05-07T03:48:34.006Z,8.50
2019-05-07T03:51:03.837Z,8.50
2019-05-07T03:53:34.106Z,8.50
2019-05-07T03:56:04.394Z,8.50
2019-05-07T03:58:34.364Z,8.40
2019-05-07T04:01:04.509Z,8.40
2019-05-07T04:03:34.593Z,8.40
2019-05-07T04:06:04.359Z,8.40
2019-05-07T04:08:33.817Z,8.40
2019-05-07T04:11:03.958Z,8.40
2019-05-07T04:13:33.931Z,8.40
2019-05-07T04:16:04.364Z,8.40
2019-05-07T04:18:34.090Z,8.30
2019-05-07T04:21:04.071Z,8.30
2019-05-07T04:23:34.387Z,8.30
2019-05-07T04:26:13.422Z,8.30
2019-05-07T04:28:53.703Z,8.30
2019-05-07T04:31:22.949Z,8.30
2019-05-07T04:33:53.307Z,8.30
2019-05-07T04:36:24.458Z,8.30
2019-05-07T04:38:53.665Z,8.30
2019-05-07T04:41:23.496Z,8.30
2019-05-07T04:43:54.119Z,8.30
2019-05-07T04:46:23.946Z,8.20
2019-05-07T04:48:53.290Z,8.30
2019-05-07T04:51:24.162Z,8.30
2019-05-07T04:53:54.117Z,8.30
2019-05-07T04:56:24.078Z,8.30
2019-05-07T04:58:53.497Z,8.30
2019-05-07T05:01:24.358Z,8.30
2019-05-07T05:03:54.219Z,8.30
2019-05-07T05:06:24.322Z,8.30
2019-05-07T05:08:56.263Z,8.30
2019-05-07T05:11:24.724Z,8.30
2019-05-07T05:13:54.290Z,8.30
2019-05-07T05:16:24.766Z,8.30
2019-05-07T05:18:55.190Z,8.30
2019-05-07T05:21:26.078Z,8.40
2019-05-07T05:24:02.668Z,8.40
2019-05-07T05:26:32.464Z,8.40
2019-05-07T05:29:02.482Z,8.40
2019-05-07T05:31:33.065Z,8.40
2019-05-07T05:34:02.496Z,8.40
2019-05-07T05:36:32.948Z,8.50
2019-05-07T05:39:02.684Z,8.50
2019-05-07T05:41:34.517Z,8.50
2019-05-07T05:44:06.308Z,8.50
2019-05-07T05:46:35.535Z,8.50
2019-05-07T05:49:04.766Z,8.60
2019-05-07T05:51:35.629Z,8.60
2019-05-07T05:54:06.474Z,8.60
2019-05-07T05:56:39.829Z,8.60
2019-05-07T05:59:23.736Z,8.60
2019-05-07T06:01:48.688Z,8.60
2019-05-07T06:04:21.974Z,8.70
2019-05-07T06:07:01.171Z,8.70
2019-05-07T06:09:33.771Z,8.70
2019-05-07T06:12:22.145Z,8.70
2019-05-07T06:15:02.277Z,8.80
2019-05-07T06:17:33.190Z,8.80
2019-05-07T06:20:04.088Z,8.80
2019-05-07T06:22:34.981Z,8.90
2019-05-07T06:25:19.748Z,8.90
2019-05-07T06:27:49.014Z,9.00
2019-05-07T06:30:18.682Z,9.00
2019-05-07T06:32:48.037Z,9.00
2019-05-07T06:35:19.375Z,9.10
2019-05-07T06:37:48.263Z,9.10
2019-05-07T06:40:26.411Z,9.20
2019-05-07T06:43:06.496Z,9.20
2019-05-07T06:45:37.389Z,9.30
2019-05-07T06:48:06.668Z,9.40
2019-05-07T06:50:35.911Z,9.40
2019-05-07T06:53:05.186Z,9.50
2019-05-07T06:55:34.770Z,9.50
2019-05-07T06:58:05.381Z,9.60
2019-05-07T07:00:39.104Z,9.70
2019-05-07T07:03:26.098Z,9.80
2019-05-07T07:05:56.959Z,9.80
2019-05-07T07:08:33.564Z,9.90
2019-05-07T07:11:13.347Z,9.90
2019-05-07T07:13:42.753Z,10.00
2019-05-07T07:16:12.731Z,10.10
2019-05-07T07:18:51.827Z,10.20
2019-05-07T07:21:13.225Z,10.30
2019-05-07T07:23:43.058Z,10.30
2019-05-07T07:26:12.751Z,10.40
2019-05-07T07:28:42.948Z,10.50
2019-05-07T07:31:16.976Z,10.60
2019-05-07T07:33:47.864Z,10.70
2019-05-07T07:36:17.342Z,10.80
2019-05-07T07:38:46.584Z,10.90
2019-05-07T07:41:17.558Z,11.00
2019-05-07T07:43:46.855Z,11.00
2019-05-07T07:46:16.599Z,11.20
2019-05-07T07:48:46.057Z,11.20
2019-05-07T07:51:15.323Z,11.30
2019-05-07T07:53:44.683Z,11.40
2019-05-07T07:56:48.322Z,11.50
2019-05-07T07:59:22.151Z,11.60
2019-05-07T08:02:08.303Z,11.70
2019-05-07T08:04:37.533Z,11.80
2019-05-07T08:07:06.769Z,11.80
2019-05-07T08:09:36.077Z,11.90
2019-05-07T08:12:05.590Z,12.00
2019-05-07T08:14:34.960Z,12.10
2019-05-07T08:17:05.808Z,12.20
2019-05-07T08:19:35.031Z,12.20
2019-05-07T08:22:04.246Z,12.30
2019-05-07T08:24:33.657Z,12.40
2019-05-07T08:27:02.887Z,12.50
2019-05-07T08:29:32.695Z,12.50
2019-05-07T08:32:04.534Z,12.60
2019-05-07T08:34:38.108Z,12.70
2019-05-07T08:37:07.338Z,12.70
2019-05-07T08:39:36.552Z,12.80
2019-05-07T08:42:05.775Z,12.90
2019-05-07T08:44:36.632Z,12.90
2019-05-07T08:47:19.539Z,13.00
2019-05-07T08:49:48.776Z,13.10
2019-05-07T08:52:17.990Z,13.10
2019-05-07T08:54:47.305Z,13.20
2019-05-07T08:57:16.542Z,13.20
2019-05-07T08:59:57.398Z,13.30
2019-05-07T09:02:16.754Z,13.40
2019-05-07T09:04:45.968Z,13.40
2019-05-07T09:07:15.233Z,13.50
2019-05-07T09:09:44.452Z,13.50
2019-05-07T09:12:13.681Z,13.60
2019-05-07T09:14:42.890Z,13.60
2019-05-07T09:17:12.732Z,13.70
2019-05-07T09:19:51.529Z,13.70
2019-05-07T09:22:16.375Z,13.80
2019-05-07T09:24:45.616Z,13.80
2019-05-07T09:27:22.358Z,13.90
2019-05-07T09:29:56.256Z,13.90
2019-05-07T09:32:32.886Z,14.00
2019-05-07T09:35:15.949Z,14.00
2019-05-07T09:37:45.193Z,14.10
2019-05-07T09:40:14.395Z,14.10
2019-05-07T09:42:43.616Z,14.20
2019-05-07T09:45:12.907Z,14.20
2019-05-07T09:47:42.208Z,14.30
2019-05-07T09:50:12.008Z,14.40
2019-05-07T09:52:42.681Z,14.40
2019-05-07T09:55:17.141Z,14.50
2019-05-07T09:57:43.013Z,14.50
2019-05-07T10:00:12.521Z,14.60
2019-05-07T10:02:42.455Z,14.60
2019-05-07T10:05:11.996Z,14.70
2019-05-07T10:07:42.383Z,14.80
2019-05-07T10:10:12.077Z,14.80
2019-05-07T10:12:55.006Z,14.90
2019-05-07T10:15:24.215Z,14.90
2019-05-07T10:17:58.121Z,14.90
2019-05-07T10:20:27.354Z,15.00
2019-05-07T10:22:56.599Z,15.00
2019-05-07T10:25:27.482Z,15.00
2019-05-07T10:27:56.721Z,15.10
2019-05-07T10:30:25.908Z,15.10
2019-05-07T10:32:55.155Z,15.10
2019-05-07T10:35:24.375Z,15.10
2019-05-07T10:37:53.625Z,15.10
2019-05-07T10:40:23.515Z,15.10
2019-05-07T10:42:52.733Z,15.20
2019-05-07T10:45:29.708Z,15.20
2019-05-07T10:48:15.585Z,15.20
2019-05-07T10:51:02.114Z,15.20
2019-05-07T10:53:32.066Z,15.20
2019-05-07T10:56:02.675Z,15.20
2019-05-07T10:58:32.241Z,15.30
2019-05-07T11:01:02.892Z,15.30
2019-05-07T11:03:32.599Z,15.40
2019-05-07T11:06:01.928Z,15.40
2019-05-07T11:08:32.895Z,15.50
2019-05-07T11:11:02.909Z,15.50
2019-05-07T11:13:32.505Z,15.50
2019-05-07T11:16:03.354Z,15.60
2019-05-07T11:18:34.239Z,15.70
2019-05-07T11:21:03.528Z,15.70
2019-05-07T11:23:32.932Z,15.70
2019-05-07T11:26:02.526Z,15.80
2019-05-07T11:28:32.560Z,15.80
2019-05-07T11:31:02.226Z,15.80
2019-05-07T11:33:32.594Z,15.90
2019-05-07T11:36:02.258Z,15.90
2019-05-07T11:38:33.384Z,15.90
2019-05-07T11:41:02.543Z,16.00
2019-05-07T11:43:33.620Z,16.00
2019-05-07T11:46:19.569Z,16.10
2019-05-07T11:49:08.296Z,16.10
2019-05-07T11:51:42.619Z,16.10
2019-05-07T11:54:13.577Z,16.10
2019-05-07T11:56:42.774Z,16.10
2019-05-07T11:59:13.417Z,16.20
2019-05-07T12:01:47.680Z,16.10
2019-05-07T12:04:15.674Z,16.20
2019-05-07T12:06:44.875Z,16.10
2019-05-07T12:09:14.084Z,16.10
2019-05-07T12:11:43.327Z,16.20
2019-05-07T12:14:12.604Z,16.20
2019-05-07T12:16:42.531Z,16.20
2019-05-07T12:19:13.132Z,16.30
2019-05-07T12:21:43.094Z,16.40
2019-05-07T12:24:13.561Z,16.40
2019-05-07T12:26:44.313Z,16.40
2019-05-07T12:29:13.524Z,16.50
2019-05-07T12:31:56.123Z,16.50
2019-05-07T12:34:26.965Z,16.60
2019-05-07T12:36:56.203Z,16.60
2019-05-07T12:39:25.411Z,16.60
2019-05-07T12:41:54.634Z,16.60
2019-05-07T12:44:23.839Z,16.70
2019-05-07T12:46:53.078Z,16.70
2019-05-07T12:49:22.313Z,16.80
2019-05-07T12:51:53.238Z,16.80
2019-05-07T12:54:24.100Z,16.90
2019-05-07T12:56:53.334Z,16.90
2019-05-07T12:59:22.586Z,17.00
2019-05-07T13:01:53.627Z,17.00
2019-05-07T13:04:26.991Z,17.10
2019-05-07T13:06:57.859Z,17.10
2019-05-07T13:09:27.060Z,17.20
2019-05-07T13:11:56.326Z,17.20
2019-05-07T13:14:25.553Z,17.20
2019-05-07T13:16:54.775Z,17.20
2019-05-07T13:19:26.769Z,17.30
2019-05-07T13:21:56.020Z,17.30
2019-05-07T13:24:25.310Z,17.30
2019-05-07T13:26:54.556Z,17.30
2019-05-07T13:29:23.786Z,17.30
2019-05-07T13:31:54.352Z,17.30
2019-05-07T13:34:23.726Z,17.30
2019-05-07T13:36:54.817Z,17.30
2019-05-07T13:39:34.672Z,17.40
2019-05-07T13:42:22.008Z,17.40
2019-05-07T13:44:58.920Z,17.50
2019-05-07T13:47:32.799Z,17.50
2019-05-07T13:50:02.654Z,17.50
2019-05-07T13:52:32.949Z,17.60
2019-05-07T13:55:02.374Z,17.60
2019-05-07T13:57:32.212Z,17.70
2019-05-07T14:00:02.344Z,17.70
2019-05-07T14:02:32.699Z,17.80
2019-05-07T14:05:01.900Z,17.80
2019-05-07T14:07:32.764Z,17.90
2019-05-07T14:10:02.227Z,17.90
2019-05-07T14:12:33.697Z,17.90
2019-05-07T14:15:02.728Z,17.90
2019-05-07T14:17:32.277Z,17.90
2019-05-07T14:20:01.862Z,18.00
2019-05-07T14:22:32.469Z,18.00
2019-05-07T14:25:01.683Z,18.00
2019-05-07T14:27:32.133Z,18.00
2019-05-07T14:30:02.720Z,18.00
2019-05-07T14:32:46.116Z,18.00
2019-05-07T14:35:26.095Z,18.00
2019-05-07T14:38:05.982Z,18.00
2019-05-07T14:40:35.235Z,18.00
2019-05-07T14:43:15.416Z,18.00
2019-05-07T14:45:44.624Z,18.00
2019-05-07T14:48:13.925Z,18.00
2019-05-07T14:50:44.946Z,18.00
2019-05-07T14:53:14.080Z,18.00
2019-05-07T14:55:43.278Z,18.10
2019-05-07T14:58:12.573Z,18.10
2019-05-07T15:00:42.705Z,18.10
2019-05-07T15:03:12.638Z,18.10
2019-05-07T15:05:42.372Z,18.20
2019-05-07T15:08:14.412Z,18.20
2019-05-07T15:10:42.737Z,18.20
2019-05-07T15:13:12.746Z,18.30
2019-05-07T15:15:42.348Z,18.30
2019-05-07T15:18:15.818Z,18.40
2019-05-07T15:20:44.319Z,18.40
2019-05-07T15:23:15.330Z,18.40
2019-05-07T15:25:44.560Z,18.40
2019-05-07T15:28:13.835Z,18.40
2019-05-07T15:30:44.715Z,18.40
2019-05-07T15:33:13.930Z,18.40
2019-05-07T15:35:43.148Z,18.30
2019-05-07T15:38:12.422Z,18.30
2019-05-07T15:40:42.254Z,18.30
2019-05-07T15:43:12.847Z,18.30
2019-05-07T15:45:42.323Z,18.30
2019-05-07T15:48:12.673Z,18.30
2019-05-07T15:50:42.891Z,18.30
2019-05-07T15:53:26.017Z,18.30
2019-05-07T15:55:55.262Z,18.30
2019-05-07T15:58:24.464Z,18.30
2019-05-07T16:00:53.695Z,18.30
2019-05-07T16:03:36.580Z,18.20
2019-05-07T16:06:05.820Z,18.20
2019-05-07T16:08:36.656Z,18.20
2019-05-07T16:11:05.881Z,18.20
2019-05-07T16:13:36.742Z,18.20
2019-05-07T16:16:05.957Z,18.20
2019-05-07T16:18:36.814Z,18.20
2019-05-07T16:21:06.035Z,18.20
2019-05-07T16:23:35.244Z,18.20
2019-05-07T16:26:05.318Z,18.20
2019-05-07T16:28:34.660Z,18.20
2019-05-07T16:31:03.877Z,18.20
2019-05-07T16:33:34.805Z,18.10
2019-05-07T16:36:04.129Z,18.10
2019-05-07T16:38:33.338Z,18.10
2019-05-07T16:41:02.560Z,18.10
2019-05-07T16:43:31.765Z,18.10
2019-05-07T16:46:02.447Z,18.10
2019-05-07T16:48:32.758Z,18.10
2019-05-07T16:51:02.402Z,18.00
2019-05-07T16:53:33.047Z,18.00
2019-05-07T16:56:02.979Z,18.00
2019-05-07T16:58:34.998Z,18.00
2019-05-07T17:01:09.111Z,18.00
2019-05-07T17:03:42.790Z,17.90
2019-05-07T17:06:12.426Z,17.90
2019-05-07T17:08:43.539Z,17.90
2019-05-07T17:11:13.021Z,17.90
2019-05-07T17:13:42.503Z,17.80
2019-05-07T17:16:12.352Z,17.80
2019-05-07T17:18:41.709Z,17.80
2019-05-07T17:21:12.336Z,17.70
2019-05-07T17:23:44.618Z,17.70
2019-05-07T17:26:12.654Z,17.70
2019-05-07T17:28:42.575Z,17.70
2019-05-07T17:31:12.446Z,17.60
2019-05-07T17:33:42.496Z,17.60
2019-05-07T17:36:12.207Z,17.60
2019-05-07T17:38:42.847Z,17.50
2019-05-07T17:41:19.944Z,17.50
2019-05-07T17:43:43.185Z,17.50
2019-05-07T17:46:12.418Z,17.50
2019-05-07T17:48:42.860Z,17.50
2019-05-07T17:51:13.952Z,17.40
2019-05-07T17:53:56.587Z,17.40
2019-05-07T17:56:14.113Z,17.40
2019-05-07T17:58:43.359Z,17.40
2019-05-07T18:01:12.569Z,17.30
2019-05-07T18:03:42.918Z,17.30
2019-05-07T18:06:12.591Z,17.30
2019-05-07T18:08:41.983Z,17.20
2019-05-07T18:11:20.920Z,17.20
2019-05-07T18:13:42.610Z,17.20
2019-05-07T18:16:19.802Z,17.20
2019-05-07T18:18:49.024Z,17.10
2019-05-07T18:21:18.217Z,17.10
2019-05-07T18:23:47.451Z,17.00
2019-05-07T18:26:29.755Z,17.00
2019-05-07T18:28:47.607Z,17.00
2019-05-07T18:31:18.378Z,16.90
2019-05-07T18:33:49.222Z,16.90
2019-05-07T18:36:18.427Z,16.80
2019-05-07T18:38:47.721Z,16.80
2019-05-07T18:41:16.919Z,16.70
2019-05-07T18:43:46.170Z,16.70
2019-05-07T18:46:15.382Z,16.70
2019-05-07T18:48:44.625Z,16.60
2019-05-07T18:51:13.809Z,16.50
2019-05-07T18:53:43.051Z,16.50
2019-05-07T18:56:12.802Z,16.50
2019-05-07T18:58:42.711Z,16.40
2019-05-07T19:01:13.784Z,16.40
2019-05-07T19:03:43.061Z,16.30
2019-05-07T19:06:13.391Z,16.30
2019-05-07T19:08:42.924Z,16.30
2019-05-07T19:11:12.489Z,16.20
2019-05-07T19:13:42.174Z,16.20
2019-05-07T19:16:12.460Z,16.10
2019-05-07T19:18:43.067Z,16.10
2019-05-07T19:21:12.529Z,16.00
2019-05-07T19:23:42.375Z,16.00
2019-05-07T19:26:13.132Z,16.00
2019-05-07T19:28:42.511Z,15.90
2019-05-07T19:31:12.429Z,15.90
2019-05-07T19:33:42.101Z,15.80
2019-05-07T19:36:11.340Z,15.80
2019-05-07T19:38:42.068Z,15.70
2019-05-07T19:41:12.350Z,15.70
2019-05-07T19:43:42.057Z,15.60
2019-05-07T19:46:12.307Z,15.60
2019-05-07T19:48:43.855Z,15.60
2019-05-07T19:51:12.797Z,15.50
2019-05-07T19:53:42.118Z,15.50
2019-05-07T19:56:16.167Z,15.40
2019-05-07T19:58:45.382Z,15.40
2019-05-07T20:01:16.231Z,15.30
2019-05-07T20:03:45.441Z,15.30
2019-05-07T20:06:14.666Z,15.30
2019-05-07T20:08:44.022Z,15.20
2019-05-07T20:11:32.441Z,15.20
2019-05-07T20:14:02.100Z,15.20
2019-05-07T20:16:32.961Z,15.10
2019-05-07T20:19:02.349Z,15.10
2019-05-07T20:21:32.634Z,15.10
2019-05-07T20:24:02.134Z,15.00
2019-05-07T20:26:32.623Z,15.00
2019-05-07T20:29:03.099Z,14.90
2019-05-07T20:31:33.595Z,14.90
2019-05-07T20:34:03.166Z,14.90
2019-05-07T20:36:32.910Z,14.80
2019-05-07T20:39:02.418Z,14.80
2019-05-07T20:41:32.878Z,14.70
2019-05-07T20:44:02.994Z,14.70
2019-05-07T20:46:33.348Z,14.60
2019-05-07T20:49:03.090Z,14.60
2019-05-07T20:51:32.727Z,14.60
2019-05-07T20:54:06.478Z,14.60
2019-05-07T20:56:46.815Z,14.50
2019-05-07T20:59:16.108Z,14.50
2019-05-07T21:01:45.333Z,14.50
2019-05-07T21:04:14.552Z,14.40
2019-05-07T21:06:43.799Z,14.40
2019-05-07T21:09:12.995Z,14.40
2019-05-07T21:11:43.042Z,14.30
2019-05-07T21:14:12.523Z,14.30
2019-05-07T21:16:42.525Z,14.30
2019-05-07T21:19:12.780Z,14.20
2019-05-07T21:21:42.499Z,14.20
2019-05-07T21:24:13.071Z,14.20
2019-05-07T21:26:42.634Z,14.20
2019-05-07T21:29:13.731Z,14.10
2019-05-07T21:31:43.257Z,14.10
2019-05-07T21:34:12.733Z,14.10
2019-05-07T21:36:43.207Z,14.00
2019-05-07T21:39:13.168Z,14.00
2019-05-07T21:41:42.946Z,14.00
2019-05-07T21:44:12.212Z,13.90
2019-05-07T21:46:42.620Z,13.90
2019-05-07T21:49:12.391Z,13.90
2019-05-07T21:51:41.747Z,13.80
2019-05-07T21:54:12.635Z,13.80
2019-05-07T21:56:43.483Z,13.80
2019-05-07T21:59:14.368Z,13.80
2019-05-07T22:01:48.173Z,13.70
2019-05-07T22:04:17.434Z,13.70
2019-05-07T22:06:46.641Z,13.70
2019-05-07T22:09:16.442Z,13.70
2019-05-07T22:11:45.652Z,13.60
2019-05-07T22:14:14.906Z,13.60
2019-05-07T22:16:44.257Z,13.60
2019-05-07T22:19:13.574Z,13.60
2019-05-07T22:21:43.317Z,13.60
2019-05-07T22:24:15.077Z,13.60
2019-05-07T22:26:43.634Z,13.50
2019-05-07T22:29:12.864Z,13.50
2019-05-07T22:31:44.202Z,13.50
2019-05-07T22:34:15.388Z,13.50
2019-05-07T22:36:44.601Z,13.50
2019-05-07T22:39:13.855Z,13.40
2019-05-07T22:41:43.081Z,13.40
2019-05-07T22:44:12.327Z,13.40
2019-05-07T22:46:42.211Z,13.40
2019-05-07T22:49:12.303Z,13.30
2019-05-07T22:51:41.636Z,13.30
2019-05-07T22:54:11.860Z,13.30
2019-05-07T22:56:42.793Z,13.20
2019-05-07T22:59:12.206Z,13.20
2019-05-07T23:01:43.026Z,13.20
2019-05-07T23:04:12.288Z,13.20
2019-05-07T23:06:41.869Z,13.10
2019-05-07T23:09:12.841Z,13.10
2019-05-07T23:11:42.219Z,13.10
2019-05-07T23:14:11.898Z,13.00
2019-05-07T23:16:43.058Z,13.00
2019-05-07T23:19:14.099Z,13.00
2019-05-07T23:21:43.469Z,12.90
2019-05-07T23:24:12.670Z,12.90
2019-05-07T23:26:50.265Z,12.90
2019-05-07T23:29:12.851Z,12.80
2019-05-07T23:31:42.092Z,12.80
2019-05-07T23:34:12.555Z,12.80
2019-05-07T23:36:42.228Z,12.80
2019-05-07T23:39:13.196Z,12.80
2019-05-07T23:41:53.071Z,12.70
2019-05-07T23:44:22.879Z,12.70
2019-05-07T23:46:52.307Z,12.70
2019-05-07T23:49:23.181Z,12.60
2019-05-07T23:51:53.235Z,12.60
2019-05-07T23:54:23.287Z,12.60
2019-05-07T23:57:05.034Z,12.60
2019-05-07T23:59:23.606Z,12.50
